createdAt,value
2023-01-30T00:00:07.407Z,16.80
2023-01-30T00:03:08.792Z,17.17
2023-01-30T00:06:10.942Z,16.87
2023-01-30T00:09:15.454Z,17.40
2023-01-30T00:12:16.882Z,18.57
2023-01-30T00:15:18.287Z,18.83
2023-01-30T00:18:19.676Z,18.40
2023-01-30T00:21:21.216Z,17.97
2023-01-30T00:24:22.678Z,20.00
2023-01-30T00:27:24.110Z,18.97
2023-01-30T00:30:25.560Z,18.63
2023-01-30T00:33:27.975Z,17.60
2023-01-30T00:36:29.392Z,25.63
2023-01-30T00:39:30.782Z,18.93
2023-01-30T00:42:50.928Z,19.10
2023-01-30T00:46:13.702Z,19.67
2023-01-30T00:49:15.398Z,19.90
2023-01-30T00:52:16.788Z,19.90
2023-01-30T00:55:18.619Z,18.80
2023-01-30T00:58:21.292Z,20.03
2023-01-30T01:01:22.754Z,19.90
2023-01-30T01:04:24.332Z,19.07
2023-01-30T01:07:25.752Z,22.23
2023-01-30T01:10:28.519Z,20.20
2023-01-30T01:13:29.917Z,20.00
2023-01-30T01:16:32.721Z,19.83
2023-01-30T01:19:35.099Z,19.40
2023-01-30T01:22:36.625Z,22.10
2023-01-30T01:25:38.096Z,21.03
2023-01-30T01:28:41.163Z,17.43
2023-01-30T01:31:46.141Z,16.23
2023-01-30T01:34:47.562Z,18.53
2023-01-30T01:37:53.414Z,16.60
2023-01-30T01:41:05.964Z,17.40
2023-01-30T01:44:11.959Z,16.93
2023-01-30T01:47:13.971Z,16.90
2023-01-30T01:50:21.537Z,19.90
2023-01-30T01:53:28.862Z,15.77
2023-01-30T01:56:32.497Z,19.17
2023-01-30T01:59:39.326Z,17.27
2023-01-30T02:02:43.799Z,15.60
2023-01-30T02:05:50.682Z,16.30
2023-01-30T02:08:58.563Z,18.63
2023-01-30T02:12:03.757Z,17.97
2023-01-30T02:15:07.630Z,16.60
2023-01-30T02:18:09.559Z,19.63
2023-01-30T02:21:20.161Z,16.53
2023-01-30T02:24:27.663Z,16.57
2023-01-30T02:27:59.886Z,18.40
2023-01-30T02:31:38.793Z,18.33
2023-01-30T02:35:01.655Z,20.00
2023-01-30T02:38:30.460Z,20.20
2023-01-30T02:41:44.653Z,19.97
2023-01-30T02:44:56.854Z,21.57
2023-01-30T02:48:03.906Z,19.43
2023-01-30T02:51:18.010Z,22.17
2023-01-30T02:54:19.416Z,18.43
2023-01-30T02:57:23.744Z,24.50
2023-01-30T03:00:37.709Z,21.27
2023-01-30T03:03:54.227Z,20.13
2023-01-30T03:07:38.355Z,20.57
2023-01-30T03:11:03.091Z,20.13
2023-01-30T03:14:23.712Z,21.60
2023-01-30T03:17:27.849Z,19.97
2023-01-30T03:20:29.760Z,20.03
2023-01-30T03:23:31.535Z,20.77
2023-01-30T03:26:37.536Z,20.27
2023-01-30T03:29:40.083Z,22.10
2023-01-30T03:32:41.507Z,21.27
2023-01-30T03:35:43.238Z,21.00
2023-01-30T03:38:47.592Z,18.37
2023-01-30T03:41:49.250Z,19.23
2023-01-30T03:44:52.180Z,21.40
2023-01-30T03:47:53.754Z,18.77
2023-01-30T03:50:55.154Z,19.37
2023-01-30T03:53:56.803Z,18.07
2023-01-30T03:56:58.220Z,20.43
2023-01-30T04:00:00.192Z,20.10
2023-01-30T04:03:01.765Z,19.53
2023-01-30T04:06:03.355Z,21.03
2023-01-30T04:09:05.290Z,17.97
2023-01-30T04:12:13.520Z,18.67
2023-01-30T04:15:23.860Z,20.13
2023-01-30T04:18:54.380Z,19.17
2023-01-30T04:21:59.011Z,20.63
2023-01-30T04:25:01.013Z,19.23
2023-01-30T04:28:02.931Z,17.37
2023-01-30T04:31:09.672Z,17.70
2023-01-30T04:34:40.090Z,18.93
2023-01-30T04:37:41.617Z,18.73
2023-01-30T04:40:50.361Z,17.03
2023-01-30T04:43:52.041Z,17.30
2023-01-30T04:46:59.897Z,17.53
2023-01-30T04:50:01.320Z,17.87
2023-01-30T04:53:03.138Z,19.97
2023-01-30T04:56:04.992Z,19.77
2023-01-30T04:59:06.481Z,18.27
2023-01-30T05:02:13.084Z,19.17
2023-01-30T05:05:14.528Z,21.37
2023-01-30T05:08:16.863Z,15.50
2023-01-30T05:11:19.438Z,18.03
2023-01-30T05:14:20.886Z,19.03
2023-01-30T05:17:22.606Z,19.37
2023-01-30T05:20:24.213Z,18.70
2023-01-30T05:23:26.455Z,17.47
2023-01-30T05:26:27.943Z,18.57
2023-01-30T05:29:29.370Z,21.17
2023-01-30T05:32:31.041Z,15.80
2023-01-30T05:35:32.470Z,17.07
2023-01-30T05:38:33.910Z,15.63
2023-01-30T05:41:35.319Z,14.87
2023-01-30T05:44:36.840Z,16.17
2023-01-30T05:47:38.244Z,17.50
2023-01-30T05:50:39.644Z,16.77
2023-01-30T05:53:41.023Z,16.53
2023-01-30T05:56:42.454Z,15.70
2023-01-30T05:59:43.852Z,16.37
2023-01-30T06:02:45.305Z,14.90
2023-01-30T06:05:46.749Z,13.73
2023-01-30T06:08:52.171Z,13.67
2023-01-30T06:11:55.281Z,15.63
2023-01-30T06:14:56.754Z,15.23
2023-01-30T06:17:58.127Z,17.27
2023-01-30T06:20:59.736Z,14.70
2023-01-30T06:24:02.149Z,14.57
2023-01-30T06:27:03.538Z,15.43
2023-01-30T06:30:05.427Z,15.73
2023-01-30T06:33:08.050Z,15.90
2023-01-30T06:36:09.701Z,16.53
2023-01-30T06:39:11.271Z,15.13
2023-01-30T06:42:12.649Z,15.70
2023-01-30T06:45:16.612Z,16.43
2023-01-30T06:48:18.359Z,14.30
2023-01-30T06:51:19.765Z,13.77
2023-01-30T06:54:21.184Z,14.10
2023-01-30T06:57:22.739Z,18.20
2023-01-30T07:00:24.203Z,14.57
2023-01-30T07:03:25.594Z,14.03
2023-01-30T07:06:28.565Z,19.33
2023-01-30T07:09:29.987Z,14.53
2023-01-30T07:12:31.481Z,16.17
2023-01-30T07:15:33.450Z,13.10
2023-01-30T07:18:34.851Z,13.47
2023-01-30T07:21:36.237Z,15.10
2023-01-30T07:24:38.450Z,14.50
2023-01-30T07:27:41.108Z,12.53
2023-01-30T07:30:42.717Z,14.90
2023-01-30T07:33:44.128Z,15.77
2023-01-30T07:36:45.498Z,13.77
2023-01-30T07:39:46.902Z,16.40
2023-01-30T07:43:03.542Z,17.90
2023-01-30T07:46:05.486Z,16.67
2023-01-30T07:49:08.909Z,15.27
2023-01-30T07:52:10.403Z,15.50
2023-01-30T07:55:11.777Z,15.23
2023-01-30T07:58:15.416Z,15.10
2023-01-30T08:01:17.933Z,16.17
2023-01-30T08:04:19.484Z,13.23
2023-01-30T08:07:20.884Z,16.13
2023-01-30T08:10:22.533Z,15.87
2023-01-30T08:13:24.017Z,14.83
2023-01-30T08:16:25.583Z,14.03
2023-01-30T08:19:26.995Z,15.57
2023-01-30T08:22:29.310Z,12.73
2023-01-30T08:25:30.788Z,14.07
2023-01-30T08:28:32.399Z,17.53
2023-01-30T08:31:33.911Z,16.40
2023-01-30T08:34:35.961Z,15.50
2023-01-30T08:37:39.901Z,16.57
2023-01-30T08:40:41.866Z,13.67
2023-01-30T08:43:43.242Z,13.70
2023-01-30T08:46:44.696Z,14.47
2023-01-30T08:49:46.105Z,15.27
2023-01-30T08:52:47.506Z,13.23
2023-01-30T08:55:52.817Z,14.13
2023-01-30T08:58:54.223Z,13.87
2023-01-30T09:01:55.624Z,13.57
2023-01-30T09:04:57.118Z,13.83
2023-01-30T09:07:58.578Z,13.37
2023-01-30T09:11:01.143Z,14.83
2023-01-30T09:14:02.619Z,16.23
2023-01-30T09:17:04.060Z,14.73
2023-01-30T09:20:07.597Z,16.23
2023-01-30T09:23:09.023Z,12.63
2023-01-30T09:26:10.507Z,14.97
2023-01-30T09:29:12.730Z,14.87
2023-01-30T09:32:14.101Z,14.50
2023-01-30T09:35:15.578Z,12.67
2023-01-30T09:38:17.310Z,14.00
2023-01-30T09:41:50.243Z,13.63
2023-01-30T09:45:15.206Z,10.90
2023-01-30T09:48:42.509Z,12.97
2023-01-30T09:52:09.670Z,12.73
2023-01-30T09:55:19.671Z,12.67
2023-01-30T09:58:23.552Z,12.93
2023-01-30T10:01:44.277Z,13.63
2023-01-30T10:05:00.437Z,13.37
2023-01-30T10:08:26.836Z,12.47
2023-01-30T10:11:42.861Z,12.47
2023-01-30T10:15:09.611Z,11.60
2023-01-30T10:18:42.156Z,11.80
2023-01-30T10:21:59.126Z,13.63
2023-01-30T10:25:19.471Z,11.67
2023-01-30T10:28:26.894Z,12.23
2023-01-30T10:31:37.174Z,13.27
2023-01-30T10:34:42.054Z,11.37
2023-01-30T10:37:55.836Z,13.70
2023-01-30T10:41:19.101Z,11.73
2023-01-30T10:44:22.656Z,11.97
2023-01-30T10:47:46.578Z,12.43
2023-01-30T10:50:59.219Z,11.57
2023-01-30T10:54:03.631Z,13.20
2023-01-30T10:57:38.555Z,11.53
2023-01-30T11:00:51.405Z,11.43
2023-01-30T11:04:02.459Z,12.90
2023-01-30T11:07:04.076Z,10.57
2023-01-30T11:10:16.746Z,11.27
2023-01-30T11:13:20.804Z,11.00
2023-01-30T11:16:22.405Z,12.60
2023-01-30T11:19:34.366Z,11.40
2023-01-30T11:22:36.654Z,11.93
2023-01-30T11:26:10.452Z,12.57
2023-01-30T11:29:25.161Z,12.77
2023-01-30T11:32:28.804Z,11.80
2023-01-30T11:35:31.282Z,12.30
2023-01-30T11:38:35.238Z,11.63
2023-01-30T11:41:36.605Z,11.60
2023-01-30T11:44:42.033Z,11.90
2023-01-30T11:47:57.346Z,11.10
2023-01-30T11:51:04.555Z,12.13
2023-01-30T11:54:12.417Z,11.37
2023-01-30T11:57:15.869Z,13.43
2023-01-30T12:00:20.768Z,12.30
2023-01-30T12:03:25.521Z,14.70
2023-01-30T12:06:31.014Z,13.47
2023-01-30T12:09:35.760Z,13.10
2023-01-30T12:12:45.270Z,12.90
2023-01-30T12:15:50.379Z,11.90
2023-01-30T12:18:51.798Z,11.63
2023-01-30T12:22:16.668Z,10.53
2023-01-30T12:25:35.608Z,10.47
2023-01-30T12:28:54.947Z,12.27
2023-01-30T12:35:17.833Z,10.27
2023-01-30T12:38:39.182Z,10.90
2023-01-30T12:41:50.046Z,10.57
2023-01-30T12:45:21.244Z,12.07
2023-01-30T12:48:33.777Z,10.33
2023-01-30T12:51:43.747Z,10.57
2023-01-30T12:55:00.096Z,9.47
2023-01-30T12:58:14.725Z,11.33
2023-01-30T13:01:29.364Z,8.90
2023-01-30T13:05:04.682Z,9.87
2023-01-30T13:08:18.803Z,9.57
2023-01-30T13:11:42.110Z,8.87
2023-01-30T13:14:52.837Z,9.33
2023-01-30T13:18:05.610Z,9.07
2023-01-30T13:22:02.633Z,8.67
2023-01-30T13:25:27.093Z,8.13
2023-01-30T13:28:34.219Z,8.97
2023-01-30T13:31:40.039Z,10.53
2023-01-30T13:34:45.248Z,8.27
2023-01-30T13:37:49.591Z,8.57
2023-01-30T13:40:53.629Z,7.83
2023-01-30T13:43:55.309Z,7.60
2023-01-30T13:46:59.480Z,7.70
2023-01-30T13:50:12.329Z,7.30
2023-01-30T13:53:50.020Z,8.83
2023-01-30T13:57:15.918Z,8.13
2023-01-30T14:00:28.868Z,7.60
2023-01-30T14:03:32.334Z,7.00
2023-01-30T14:06:37.470Z,7.07
2023-01-30T14:10:10.927Z,6.80
2023-01-30T14:13:16.000Z,6.30
2023-01-30T14:16:17.598Z,5.87
2023-01-30T14:19:40.095Z,9.20
2023-01-30T14:22:51.998Z,5.73
2023-01-30T14:25:57.807Z,6.00
2023-01-30T14:28:59.225Z,7.20
2023-01-30T14:32:00.826Z,5.20
2023-01-30T14:35:17.005Z,5.60
2023-01-30T14:38:19.962Z,5.60
2023-01-30T14:41:27.467Z,4.60
2023-01-30T14:45:14.680Z,4.83
2023-01-30T14:48:41.619Z,6.27
2023-01-30T14:51:47.794Z,7.40
2023-01-30T14:54:50.516Z,5.47
2023-01-30T14:58:01.477Z,6.80
2023-01-30T15:01:03.186Z,5.67
2023-01-30T15:04:05.207Z,5.53
2023-01-30T15:07:25.452Z,7.60
2023-01-30T15:10:45.190Z,6.33
2023-01-30T15:14:02.052Z,5.67
2023-01-30T15:17:22.711Z,5.50
2023-01-30T15:20:50.473Z,6.70
2023-01-30T15:24:27.280Z,8.23
2023-01-30T15:28:19.673Z,7.57
2023-01-30T15:31:23.139Z,8.90
2023-01-30T15:34:29.429Z,7.63
2023-01-30T15:37:41.315Z,6.47
2023-01-30T15:40:42.715Z,8.93
2023-01-30T15:44:07.644Z,7.90
2023-01-30T15:47:27.907Z,8.03
2023-01-30T15:50:29.498Z,6.80
2023-01-30T15:53:37.250Z,8.73
2023-01-30T15:56:40.091Z,9.53
2023-01-30T15:59:41.856Z,7.67
2023-01-30T16:02:44.113Z,6.30
2023-01-30T16:05:55.215Z,10.17
2023-01-30T16:09:03.713Z,9.00
2023-01-30T16:12:05.327Z,7.73
2023-01-30T16:15:29.804Z,7.07
2023-01-30T16:18:55.942Z,10.03
2023-01-30T16:22:01.867Z,7.77
2023-01-30T16:25:04.442Z,7.13
2023-01-30T16:28:05.931Z,8.10
2023-01-30T16:31:09.908Z,8.50
2023-01-30T16:34:29.607Z,8.13
2023-01-30T16:37:31.759Z,7.30
2023-01-30T16:40:45.020Z,8.00
2023-01-30T16:43:46.534Z,8.97
2023-01-30T16:46:49.593Z,9.00
2023-01-30T16:49:53.015Z,7.47
2023-01-30T16:52:55.432Z,7.27
2023-01-30T16:55:59.646Z,8.40
2023-01-30T16:59:01.858Z,8.20
2023-01-30T17:02:06.644Z,7.23
2023-01-30T17:05:20.978Z,7.87
2023-01-30T17:08:31.341Z,10.93
2023-01-30T17:11:38.482Z,8.97
2023-01-30T17:14:39.946Z,9.23
2023-01-30T17:17:41.772Z,7.73
2023-01-30T17:20:47.486Z,7.43
2023-01-30T17:23:52.419Z,8.83
2023-01-30T17:27:00.144Z,7.47
2023-01-30T17:30:01.641Z,7.10
2023-01-30T17:33:03.366Z,7.50
2023-01-30T17:36:11.363Z,8.07
2023-01-30T17:39:16.208Z,6.93
2023-01-30T17:42:20.909Z,8.17
2023-01-30T17:45:22.322Z,7.70
2023-01-30T17:48:23.718Z,8.33
2023-01-30T17:51:25.112Z,8.70
2023-01-30T17:54:26.837Z,11.23
2023-01-30T17:57:28.409Z,7.50
2023-01-30T18:00:29.834Z,8.83
2023-01-30T18:03:31.283Z,8.47
2023-01-30T18:06:34.065Z,8.97
2023-01-30T18:09:35.738Z,9.60
2023-01-30T18:12:37.104Z,10.87
2023-01-30T18:15:38.486Z,9.20
2023-01-30T18:18:39.875Z,10.10
2023-01-30T18:21:44.890Z,8.73
2023-01-30T18:24:46.426Z,9.57
2023-01-30T18:27:48.015Z,9.40
2023-01-30T18:30:49.608Z,10.60
2023-01-30T18:33:52.212Z,8.80
2023-01-30T18:36:53.672Z,12.03
2023-01-30T18:39:55.069Z,10.67
2023-01-30T18:42:56.495Z,10.37
2023-01-30T18:46:03.065Z,9.27
2023-01-30T18:49:04.746Z,9.33
2023-01-30T18:52:06.148Z,11.17
2023-01-30T18:55:07.928Z,9.40
2023-01-30T18:58:09.413Z,12.33
2023-01-30T19:01:17.111Z,10.10
2023-01-30T19:04:18.529Z,9.53
2023-01-30T19:07:20.170Z,9.53
2023-01-30T19:10:22.046Z,9.40
2023-01-30T19:13:36.617Z,9.90
2023-01-30T19:16:38.918Z,12.50
2023-01-30T19:19:40.338Z,10.63
2023-01-30T19:22:42.490Z,10.00
2023-01-30T19:25:43.930Z,9.33
2023-01-30T19:28:46.106Z,8.87
2023-01-30T19:31:47.634Z,8.67
2023-01-30T19:34:50.168Z,8.80
2023-01-30T19:37:54.997Z,10.63
2023-01-30T19:40:56.378Z,10.73
2023-01-30T19:43:59.798Z,8.67
2023-01-30T19:47:01.316Z,10.73
2023-01-30T19:50:02.808Z,9.50
2023-01-30T19:53:04.322Z,11.50
2023-01-30T19:56:07.092Z,13.00
2023-01-30T19:59:09.200Z,11.60
2023-01-30T20:02:11.315Z,12.10
2023-01-30T20:05:12.870Z,9.87
2023-01-30T20:08:25.368Z,9.67
2023-01-30T20:11:32.568Z,10.10
2023-01-30T20:14:34.075Z,14.37
2023-01-30T20:17:36.134Z,11.30
2023-01-30T20:20:37.508Z,9.53
2023-01-30T20:23:41.559Z,9.87
2023-01-30T20:26:47.153Z,10.07
2023-01-30T20:29:49.607Z,9.13
2023-01-30T20:32:54.345Z,11.20
2023-01-30T20:36:01.103Z,12.60
2023-01-30T20:39:04.240Z,10.20
2023-01-30T20:42:06.302Z,11.67
2023-01-30T20:45:08.380Z,10.50
2023-01-30T20:48:09.763Z,11.37
2023-01-30T20:51:13.858Z,10.20
2023-01-30T20:54:16.302Z,12.20
2023-01-30T20:57:17.730Z,10.17
2023-01-30T21:00:19.452Z,9.70
2023-01-30T21:03:24.165Z,12.07
2023-01-30T21:06:42.573Z,10.03
2023-01-30T21:09:46.297Z,11.50
2023-01-30T21:12:47.661Z,9.20
2023-01-30T21:15:49.228Z,10.83
2023-01-30T21:18:53.512Z,12.50
2023-01-30T21:22:07.367Z,13.53
2023-01-30T21:25:08.791Z,9.40
2023-01-30T21:28:10.178Z,11.97
2023-01-30T21:31:20.705Z,11.80
2023-01-30T21:34:22.471Z,12.53
2023-01-30T21:37:42.586Z,16.17
2023-01-30T21:41:09.651Z,12.77
2023-01-30T21:44:12.575Z,13.43
2023-01-30T21:47:13.958Z,12.83
2023-01-30T21:50:15.740Z,14.40
2023-01-30T21:53:17.123Z,9.83
2023-01-30T21:56:18.584Z,13.33
2023-01-30T21:59:20.016Z,13.43
2023-01-30T22:02:21.398Z,10.70
2023-01-30T22:05:22.900Z,11.40
2023-01-30T22:08:24.283Z,10.63
2023-01-30T22:11:27.961Z,12.83
2023-01-30T22:14:29.343Z,13.40
2023-01-30T22:17:30.739Z,9.70
2023-01-30T22:20:32.174Z,13.60
2023-01-30T22:23:39.661Z,10.33
2023-01-30T22:26:41.096Z,10.73
2023-01-30T22:29:42.604Z,12.60
2023-01-30T22:32:43.974Z,12.77
2023-01-30T22:35:50.073Z,13.10
2023-01-30T22:38:51.600Z,12.80
2023-01-30T22:41:52.972Z,13.07
2023-01-30T22:44:54.656Z,13.07
2023-01-30T22:47:56.180Z,11.77
2023-01-30T22:51:22.360Z,13.23
2023-01-30T22:54:25.053Z,11.70
2023-01-30T22:57:26.491Z,18.40
2023-01-30T23:00:27.947Z,12.70
2023-01-30T23:03:29.404Z,14.23
2023-01-30T23:06:31.631Z,14.03
2023-01-30T23:09:33.091Z,14.93
2023-01-30T23:12:53.227Z,12.43
2023-01-30T23:15:59.441Z,14.37
2023-01-30T23:19:03.446Z,12.70
2023-01-30T23:22:04.930Z,13.77
2023-01-30T23:25:06.731Z,12.70
2023-01-30T23:28:08.812Z,12.73
2023-01-30T23:31:16.252Z,12.03
2023-01-30T23:34:19.142Z,13.00
2023-01-30T23:37:40.551Z,10.87
2023-01-30T23:40:43.270Z,15.90
2023-01-30T23:43:45.532Z,12.93
2023-01-30T23:46:46.993Z,12.53
2023-01-30T23:49:48.407Z,14.33
2023-01-30T23:52:49.797Z,13.77
2023-01-30T23:55:52.668Z,12.70
2023-01-30T23:58:54.170Z,13.20
